Hauptseite
METAR-TAF:

METAR-TAF

Flughäfen :

Militärflugplatz Deelen

Arnheim, Niederlande

Breite: 52-04N, Länge: 005-53E, Höhe: 48 m

Beobachtung

Neuester Wetterbericht von vor 38 Minuten, um 03:25 UTC
Wind 2 kt aus unterschiedlichen Richtungen
Temperatur 2°C
Luftfeuchtigkeit 100%
Luftdruck 1026 hPa
Sichtweite: 0600 m
Nebel

METAR: EHDL 160325Z AUTO VRB02KT 0600 FG NCD 02/02 Q1026 RED

Zeit: 05:03 (04:03 UTC)

Prognose

Neuester Wetterbericht von vor 10 Stunden und 58 Minuten, um 17:05 UTC
Gültige Prognose vom 15 um 18 UTC bis 16 um 06 UTC
Wind 4 kt aus Ost/Südost
Sichtweite 10 km oder mehr
keine Wolken unter 1500 m und keine Kumulonimbus oder Gewitterwolken
Übergehend zu
vom 15 um 23 UTC bis 16 um 01 UTC
Sichtweite: 3500 m
feuchter Dunst
Übergehend zu
vom 16 um 01 UTC bis 16 um 03 UTC
Sichtweite: 1800 m
feuchter Dunst

TAF: EHDL 151705Z 1518/1606 12004KT CAVOK BECMG 1523/1601 3500 BR BECMG 1601/1603 1800 BR

Wetterbeobachtungen und Prognosen von mehr als 4000 Flughäfen (METAR und TAF Bericht).

Die verfügbaren Stationen werden durch gelbe und rote Markierungen auf der Karte dargestellt.

Führen Sie die Maus auf sie, um den Namen der Station zu sehen.

Darauf klicken, um die Beobachtung von Wetterbeobachtungen und Prognosen zu sehen.

Um die Karte zu ändern : klicken Sie auf den grünen Tasten mit einem schwarzen Kreuz Zum Vergrößern, auf den grünen Button mit einem Gedankenstrich zu verkleinern, oder auf die grünen Pfeile für benachbarte Karten.


METAR-TAF: